Hull, Canada
Current Conditions -  °F | °C
As of 3:00 PM on Thursday 20 Nov 2014 (Local Time) from CYOW Reporting Station
Broken Clouds Broken Clouds  
Wind Chill: 16°   Ceiling: 5800
Heat Index: 28°   Visibility: 15mi
Dew Point: 14°   Wind: 17mph
Humidity: 55%   Direction: 230°SW
Pressure: 29.67"   Gusts: 30mph
Location:  45.43°N, 75.71°W
Report Text: CYOW 202000Z 23015G26KT 15SM BKN058 M02/M10 A2967 RMK SC5 SLP054
Loading
Personal Weather Stations






























Interactive Weather Map New forecast layout! Learn more

10-Day Weather Forecast

Advertisements
Track Severe Weather on mobile